North Myrtle Beach, SC (29582)

2:32 PM EDT on September 01, 2015 (GMT -0400)
APRSWXNET | | Change Station
CLOSE
Current Station
Personal Weather Station
Location: North Myrtle Beach, SC
Elevation: 9 ft
Nearby Weather Stations

Elev 9 ft 33.83 °N, 78.67 °W | Updated 30 minutes ago

Partly Cloudy
Partly Cloudy
89 °F
Feels Like 100 °F
N
0
Wind Variable Wind from West
Gusts 3.0 mph

Today
High -- | Low -- °F
--% Chance of Precip.
Yesterday
High -- | Low -- °F
Precip. -- in
6:48 AM 7:40 PM
Waning Gibbous, 87% visible
Pressure 30.08 in
Visibility 10.0 miles
Clouds Few 3900 ft
Heat Index 100 °F
Dew Point 76 °F
Humidity 65%
Rainfall in
Snow Depth Not available.
UV 11 out of 12
Pollen 8.10 out of 12
Air Quality Not available.
Flu Activity Not available.
METAR KCRE 011753Z 32004KT 10SM FEW039 31/22 A3008 RMK AO1 SLP186 T03060217 10311 20211 56016 $
Pressure 30.08 in
Visibility 10.0 miles
Clouds Few 3900 ft
Heat Index 100 °F
Dew Point 76 °F
Humidity 65%
Rainfall in
Snow Depth Not available.
UV 11 out of 12
Pollen 8.10 out of 12
Air Quality Not available.
Flu Activity Not available.
METAR KCRE 011753Z 32004KT 10SM FEW039 31/22 A3008 RMK AO1 SLP186 T03060217 10311 20211 56016 $

10-Day Weather Forecast

×

Almanac

Astronomy

Sep. 01, 2015 Rise Set
Actual Time
Civil Twilight
Nautical Twilight
Astronomical Twilight
Moon
Length of Visible Light
Length of Day
Tomorrow will be .
, % of the Moon is Illuminated

Today's Extremes

State Highs State Lows

Community

WunderPhotos

Upload Photos

1,851,593 photos uploaded!

WunderBlogs® & News

Nearby

Air Quality

  Air Quality AQ Index Pollutant
Not available.

Snow Depth

Station Depth Elevation

Earthquake Activity

City Distance Mag. Time & Date
Minimum magnitude displayed is 2.5.

Coastal Water Temperatures

Place Temperature

Stations

Nearby Weather Stations

Station Location Temp. Windchill Dew Point Humidity Wind Precip. Elev Updated Type